createdAt,value
2022-11-20T00:01:07.036Z,75.00
2022-11-20T00:03:33.719Z,74.75
2022-11-20T00:06:04.053Z,74.38
2022-11-20T00:08:30.530Z,74.56
2022-11-20T00:10:57.031Z,74.70
2022-11-20T00:13:23.583Z,74.43
2022-11-20T00:15:50.101Z,74.55
2022-11-20T00:18:16.541Z,74.76
2022-11-20T00:20:42.996Z,74.43
2022-11-20T00:23:09.529Z,74.31
2022-11-20T00:25:36.740Z,74.94
2022-11-20T00:28:05.383Z,74.53
2022-11-20T00:30:32.796Z,74.71
2022-11-20T00:32:59.381Z,74.52
2022-11-20T00:35:25.861Z,74.58
2022-11-20T00:37:52.381Z,74.49
2022-11-20T00:40:18.955Z,75.06
2022-11-20T00:42:45.387Z,74.77
2022-11-20T00:45:11.986Z,74.68
2022-11-20T00:47:38.459Z,74.41
2022-11-20T00:50:05.222Z,74.42
2022-11-20T00:52:31.729Z,74.53
2022-11-20T00:54:58.249Z,74.04
2022-11-20T00:57:24.676Z,74.24
2022-11-20T00:59:51.230Z,74.15
2022-11-20T01:02:17.989Z,73.84
2022-11-20T01:04:44.480Z,74.06
2022-11-20T01:07:13.229Z,74.43
2022-11-20T01:09:40.080Z,74.34
2022-11-20T01:12:06.557Z,74.30
2022-11-20T01:14:32.976Z,74.33
2022-11-20T01:16:59.516Z,74.79
2022-11-20T01:19:26.213Z,75.11
2022-11-20T01:21:53.947Z,75.19
2022-11-20T01:24:20.928Z,75.45
2022-11-20T01:26:48.359Z,75.65
2022-11-20T01:29:15.908Z,76.11
2022-11-20T01:31:42.940Z,75.84
2022-11-20T01:34:13.523Z,76.02
2022-11-20T01:36:40.095Z,75.87
2022-11-20T01:39:16.763Z,75.76
2022-11-20T01:42:05.690Z,75.67
2022-11-20T01:44:46.530Z,75.94
2022-11-20T01:47:13.529Z,76.69
2022-11-20T01:49:40.798Z,76.40
2022-11-20T01:52:17.533Z,76.85
2022-11-20T01:54:46.643Z,77.18
2022-11-20T01:57:13.231Z,76.90
2022-11-20T01:59:40.864Z,76.56
2022-11-20T02:02:07.586Z,77.05
2022-11-20T02:04:34.035Z,76.75
2022-11-20T02:07:01.245Z,76.69
2022-11-20T02:09:28.218Z,76.31
2022-11-20T02:11:54.636Z,76.54
2022-11-20T02:14:21.279Z,76.69
2022-11-20T02:16:48.192Z,76.54
2022-11-20T02:19:31.489Z,76.31
2022-11-20T02:21:57.929Z,76.62
2022-11-20T02:24:24.526Z,76.45
2022-11-20T02:27:01.347Z,76.42
2022-11-20T02:29:28.998Z,76.36
2022-11-20T02:31:55.974Z,76.45
2022-11-20T02:34:22.414Z,76.73
2022-11-20T02:36:49.034Z,76.26
2022-11-20T02:39:17.958Z,76.67
2022-11-20T02:41:44.561Z,76.60
2022-11-20T02:44:11.136Z,76.39
2022-11-20T02:46:37.564Z,77.00
2022-11-20T02:52:31.969Z,76.41
2022-11-20T02:54:58.447Z,76.80
2022-11-20T02:57:24.827Z,76.91
2022-11-20T02:59:51.218Z,76.74
2022-11-20T03:02:17.725Z,76.96
2022-11-20T03:04:44.182Z,76.73
2022-11-20T03:07:10.973Z,76.78
2022-11-20T03:09:37.461Z,76.75
2022-11-20T03:12:13.059Z,76.05
2022-11-20T03:14:39.506Z,76.39
2022-11-20T03:17:05.909Z,76.16
2022-11-20T03:19:32.396Z,76.21
2022-11-20T03:21:58.846Z,76.15
2022-11-20T03:24:25.286Z,76.55
2022-11-20T03:26:51.706Z,76.04
2022-11-20T03:29:18.319Z,76.18
2022-11-20T03:31:44.981Z,76.16
2022-11-20T03:34:12.154Z,76.10
2022-11-20T03:36:39.372Z,76.16
2022-11-20T03:39:05.959Z,76.40
2022-11-20T03:41:32.609Z,76.50
2022-11-20T03:43:59.939Z,76.65
2022-11-20T03:46:26.485Z,76.08
2022-11-20T03:48:53.020Z,76.02
2022-11-20T03:51:20.332Z,76.17
2022-11-20T03:53:47.233Z,76.30
2022-11-20T03:56:13.911Z,76.38
2022-11-20T03:58:40.843Z,76.60
2022-11-20T04:01:17.591Z,76.94
2022-11-20T04:07:12.539Z,76.57
2022-11-20T04:09:38.969Z,77.27
2022-11-20T04:12:05.549Z,77.31
2022-11-20T04:14:31.967Z,77.31
2022-11-20T04:16:58.380Z,77.03
2022-11-20T04:19:24.783Z,76.89
2022-11-20T04:21:51.188Z,77.01
2022-11-20T04:24:17.687Z,76.76
2022-11-20T04:26:44.126Z,76.84
2022-11-20T04:29:11.505Z,76.60
2022-11-20T04:31:38.057Z,76.65
2022-11-20T04:34:05.447Z,77.03
2022-11-20T04:36:32.009Z,77.10
2022-11-20T04:38:59.116Z,77.44
2022-11-20T04:41:29.419Z,77.36
2022-11-20T04:44:04.359Z,77.54
2022-11-20T04:46:31.713Z,77.01
2022-11-20T04:48:58.148Z,77.38
2022-11-20T04:51:24.768Z,77.19
2022-11-20T04:54:02.547Z,76.81
2022-11-20T04:56:28.988Z,76.98
2022-11-20T04:58:55.433Z,76.82
2022-11-20T05:01:22.848Z,77.21
2022-11-20T05:03:49.554Z,76.64
2022-11-20T05:06:18.753Z,76.81
2022-11-20T05:08:45.259Z,76.99
2022-11-20T05:11:15.546Z,77.25
2022-11-20T05:13:41.973Z,76.73
2022-11-20T05:16:09.543Z,76.88
2022-11-20T05:18:36.410Z,77.08
2022-11-20T05:21:02.918Z,77.20
2022-11-20T05:23:30.059Z,77.23
2022-11-20T05:25:59.218Z,76.81
2022-11-20T05:28:26.366Z,77.17
2022-11-20T05:30:52.776Z,76.93
2022-11-20T05:33:19.237Z,76.98
2022-11-20T05:35:45.645Z,76.76
2022-11-20T05:38:12.229Z,77.06
2022-11-20T05:40:38.870Z,77.08
2022-11-20T05:43:05.476Z,77.08
2022-11-20T05:45:31.905Z,76.47
2022-11-20T05:47:59.058Z,77.10
2022-11-20T05:50:25.475Z,76.64
2022-11-20T05:52:51.886Z,76.48
2022-11-20T05:55:18.315Z,76.78
2022-11-20T05:57:44.725Z,77.15
2022-11-20T06:00:11.527Z,76.91
2022-11-20T06:02:38.033Z,77.06
2022-11-20T06:05:04.645Z,77.14
2022-11-20T06:07:31.162Z,77.09
2022-11-20T06:09:57.675Z,76.75
2022-11-20T06:12:24.102Z,77.27
2022-11-20T06:14:50.720Z,77.14
2022-11-20T06:17:17.179Z,76.85
2022-11-20T06:19:43.621Z,77.01
2022-11-20T06:22:10.228Z,77.21
2022-11-20T06:24:36.683Z,77.08
2022-11-20T06:27:03.124Z,77.04
2022-11-20T06:29:33.716Z,76.45
2022-11-20T06:32:00.570Z,76.72
2022-11-20T06:34:27.013Z,76.75
2022-11-20T06:36:53.607Z,76.79
2022-11-20T06:39:20.549Z,76.91
2022-11-20T06:41:47.248Z,77.02
2022-11-20T06:44:13.681Z,76.81
2022-11-20T06:46:40.114Z,76.78
2022-11-20T06:49:07.004Z,76.63
2022-11-20T06:51:33.533Z,76.36
2022-11-20T06:54:01.942Z,76.27
2022-11-20T06:56:29.032Z,76.16
2022-11-20T06:58:55.502Z,76.11
2022-11-20T07:01:22.004Z,76.62
2022-11-20T07:03:54.034Z,76.12
2022-11-20T07:06:20.997Z,76.86
2022-11-20T07:08:48.217Z,76.18
2022-11-20T07:11:14.994Z,76.23
2022-11-20T07:13:41.621Z,76.32
2022-11-20T07:16:08.362Z,76.85
2022-11-20T07:18:34.839Z,76.79
2022-11-20T07:21:04.948Z,76.84
2022-11-20T07:23:31.477Z,76.28
2022-11-20T07:25:58.113Z,76.59
2022-11-20T07:28:24.625Z,76.30
2022-11-20T07:30:54.207Z,76.19
2022-11-20T07:33:20.712Z,76.41
2022-11-20T07:35:47.361Z,76.16
2022-11-20T07:38:13.771Z,76.42
2022-11-20T07:40:40.229Z,76.57
2022-11-20T07:43:07.160Z,76.58
2022-11-20T07:45:33.613Z,76.86
2022-11-20T07:48:00.062Z,76.85
2022-11-20T07:50:26.530Z,76.69
2022-11-20T07:52:53.589Z,76.99
2022-11-20T07:55:20.012Z,76.67
2022-11-20T07:57:46.557Z,76.71
2022-11-20T08:00:13.433Z,76.76
2022-11-20T08:02:40.427Z,76.59
2022-11-20T08:05:07.071Z,76.90
2022-11-20T08:07:38.060Z,76.63
2022-11-20T08:17:21.932Z,76.66
2022-11-20T08:19:48.521Z,76.48
2022-11-20T08:22:15.258Z,76.95
2022-11-20T08:24:41.682Z,76.62
2022-11-20T08:27:08.136Z,76.88
2022-11-20T08:29:34.825Z,76.93
2022-11-20T08:32:01.260Z,77.00
2022-11-20T08:34:27.898Z,76.73
2022-11-20T08:36:54.323Z,76.47
2022-11-20T08:39:21.025Z,76.60
2022-11-20T08:41:47.695Z,76.94
2022-11-20T08:44:14.135Z,76.26
2022-11-20T08:46:42.037Z,76.80
2022-11-20T08:49:12.151Z,76.55
2022-11-20T08:51:38.748Z,76.34
2022-11-20T08:54:05.395Z,76.57
2022-11-20T08:56:31.968Z,76.42
2022-11-20T09:01:46.878Z,76.17
2022-11-20T09:04:15.361Z,76.23
2022-11-20T09:06:41.897Z,75.92
2022-11-20T09:09:08.439Z,75.77
2022-11-20T09:11:37.585Z,75.80
2022-11-20T09:17:32.342Z,75.43
2022-11-20T09:19:59.156Z,75.21
2022-11-20T09:22:25.535Z,74.95
2022-11-20T09:24:52.443Z,75.27
2022-11-20T09:27:22.651Z,75.18
2022-11-20T09:29:49.142Z,75.26
2022-11-20T09:32:15.607Z,74.80
2022-11-20T09:34:42.091Z,74.84
2022-11-20T09:37:08.760Z,73.57
2022-11-20T09:39:39.719Z,73.24
2022-11-20T09:46:09.739Z,73.21
2022-11-20T09:48:38.497Z,73.21
2022-11-20T09:51:18.172Z,72.43
2022-11-20T09:53:53.452Z,72.38
2022-11-20T09:56:22.487Z,72.35
2022-11-20T09:58:54.948Z,72.61
2022-11-20T10:01:22.444Z,72.21
2022-11-20T10:03:57.050Z,72.25
2022-11-20T10:06:25.817Z,72.02
2022-11-20T10:08:55.599Z,72.20
2022-11-20T10:11:25.256Z,72.22
2022-11-20T10:13:54.713Z,72.24
2022-11-20T10:16:25.241Z,72.10
2022-11-20T10:18:54.774Z,71.87
2022-11-20T10:21:24.803Z,71.98
2022-11-20T10:23:54.908Z,71.92
2022-11-20T10:26:33.689Z,72.25
2022-11-20T10:29:03.454Z,72.52
2022-11-20T10:31:51.745Z,73.20
2022-11-20T10:34:22.945Z,73.35
2022-11-20T10:37:04.804Z,73.40
2022-11-20T10:39:42.533Z,73.54
2022-11-20T10:42:12.690Z,73.04
2022-11-20T10:44:59.633Z,73.18
2022-11-20T10:47:29.954Z,73.59
2022-11-20T10:49:56.639Z,73.50
2022-11-20T10:52:35.314Z,73.34
2022-11-20T10:55:20.477Z,73.47
2022-11-20T10:58:13.335Z,73.27
2022-11-20T11:00:39.955Z,73.41
2022-11-20T11:03:15.702Z,73.60
2022-11-20T11:05:52.023Z,73.62
2022-11-20T11:08:18.866Z,73.11
2022-11-20T11:10:55.918Z,73.11
2022-11-20T11:13:23.084Z,73.73
2022-11-20T11:15:49.530Z,73.55
2022-11-20T11:18:29.472Z,74.43
2022-11-20T11:20:57.374Z,73.85
2022-11-20T11:23:30.316Z,74.26
2022-11-20T11:25:57.477Z,74.09
2022-11-20T11:28:27.467Z,73.78
2022-11-20T11:34:22.234Z,74.31
2022-11-20T11:36:55.549Z,74.36
2022-11-20T11:39:22.477Z,74.49
2022-11-20T11:41:49.159Z,74.36
2022-11-20T11:44:35.341Z,74.21
2022-11-20T11:47:01.849Z,73.41
2022-11-20T11:49:28.339Z,73.07
2022-11-20T11:52:15.133Z,72.41
2022-11-20T11:54:52.566Z,71.86
2022-11-20T11:57:21.786Z,72.06
2022-11-20T11:59:52.595Z,72.51
2022-11-20T12:02:42.456Z,72.49
2022-11-20T12:05:21.230Z,72.61
2022-11-20T12:07:48.478Z,72.29
2022-11-20T12:10:20.469Z,72.08
2022-11-20T12:12:48.958Z,72.57
2022-11-20T12:15:17.543Z,70.67
2022-11-20T12:17:44.014Z,70.90
2022-11-20T12:20:14.435Z,71.16
2022-11-20T12:22:51.563Z,71.70
2022-11-20T12:25:28.716Z,71.70
2022-11-20T12:27:55.139Z,71.41
2022-11-20T12:30:21.856Z,71.00
2022-11-20T12:33:05.043Z,70.60
2022-11-20T12:35:50.363Z,70.61
2022-11-20T12:38:19.935Z,70.39
2022-11-20T12:41:01.691Z,70.90
2022-11-20T12:43:50.896Z,71.02
2022-11-20T12:46:17.367Z,71.52
2022-11-20T12:48:46.696Z,72.08
2022-11-20T12:51:27.539Z,72.31
2022-11-20T12:54:00.294Z,72.96
2022-11-20T12:56:35.980Z,72.88
2022-11-20T12:59:21.454Z,72.15
2022-11-20T13:01:51.460Z,72.34
2022-11-20T13:04:20.255Z,72.29
2022-11-20T13:06:46.911Z,72.37
2022-11-20T13:09:16.711Z,72.54
2022-11-20T13:11:57.538Z,71.97
2022-11-20T13:14:24.228Z,71.90
2022-11-20T13:16:57.735Z,72.46
2022-11-20T13:19:25.429Z,72.36
2022-11-20T13:21:52.058Z,72.57
2022-11-20T13:24:25.301Z,73.23
2022-11-20T13:27:04.305Z,73.35
2022-11-20T13:29:31.017Z,73.67
2022-11-20T13:32:07.736Z,73.12
2022-11-20T13:34:34.915Z,73.64
2022-11-20T13:37:07.501Z,73.54
2022-11-20T13:39:34.950Z,73.75
2022-11-20T13:42:02.287Z,74.01
2022-11-20T13:44:38.735Z,73.78
2022-11-20T13:47:05.406Z,74.09
2022-11-20T13:49:38.034Z,74.26
2022-11-20T13:52:07.517Z,74.49
2022-11-20T13:54:44.239Z,74.02
2022-11-20T13:57:16.779Z,74.33
2022-11-20T13:59:54.171Z,74.60
2022-11-20T14:02:20.965Z,74.33
2022-11-20T14:04:48.113Z,74.53
2022-11-20T14:07:15.029Z,74.49
2022-11-20T14:09:49.655Z,75.13
2022-11-20T14:12:17.019Z,75.03
2022-11-20T14:14:53.125Z,75.06
2022-11-20T14:17:20.500Z,75.63
2022-11-20T14:19:46.967Z,75.37
2022-11-20T14:22:19.887Z,75.49
2022-11-20T14:24:46.895Z,75.60
2022-11-20T14:27:14.208Z,76.16
2022-11-20T14:29:41.709Z,76.02
2022-11-20T14:32:09.229Z,76.18
2022-11-20T14:34:38.328Z,76.18
2022-11-20T14:37:05.653Z,76.30
2022-11-20T14:39:42.420Z,76.12
2022-11-20T14:42:15.520Z,76.56
2022-11-20T14:44:42.066Z,76.62
2022-11-20T14:47:10.159Z,76.73
2022-11-20T14:49:36.596Z,76.96
2022-11-20T14:52:04.052Z,77.22
2022-11-20T14:54:31.719Z,77.36
2022-11-20T14:56:58.957Z,77.82
2022-11-20T14:59:29.202Z,77.76
2022-11-20T15:02:06.591Z,77.63
2022-11-20T15:04:33.033Z,77.90
2022-11-20T15:07:00.298Z,78.13
2022-11-20T15:09:26.879Z,78.39
2022-11-20T15:11:57.508Z,78.52
2022-11-20T15:14:25.254Z,78.81
2022-11-20T15:16:52.101Z,79.30
2022-11-20T15:19:19.587Z,79.29
2022-11-20T15:21:46.035Z,79.27
2022-11-20T15:24:12.476Z,79.32
2022-11-20T15:26:40.238Z,79.05
2022-11-20T15:29:08.967Z,78.93
2022-11-20T15:31:47.822Z,79.04
2022-11-20T15:34:18.190Z,78.79
2022-11-20T15:36:44.956Z,79.01
2022-11-20T15:39:12.610Z,79.24
2022-11-20T15:41:39.800Z,78.98
2022-11-20T15:44:06.258Z,79.47
2022-11-20T15:46:39.236Z,79.04
2022-11-20T15:49:05.691Z,79.44
2022-11-20T15:51:32.906Z,79.20
2022-11-20T15:53:59.444Z,79.29
2022-11-20T15:56:25.918Z,79.29
2022-11-20T15:58:52.358Z,79.21
2022-11-20T16:01:19.487Z,79.24
2022-11-20T16:03:45.960Z,79.18
2022-11-20T16:06:12.610Z,79.03
2022-11-20T16:08:39.211Z,79.11
2022-11-20T16:11:05.648Z,78.67
2022-11-20T16:13:50.719Z,78.76
2022-11-20T16:16:21.094Z,78.94
2022-11-20T16:18:47.493Z,78.91
2022-11-20T16:21:16.876Z,79.00
2022-11-20T16:23:46.393Z,79.14
2022-11-20T16:26:13.386Z,79.32
2022-11-20T16:28:39.861Z,79.27
2022-11-20T16:31:10.341Z,79.14
2022-11-20T16:33:36.758Z,79.01
2022-11-20T16:36:13.011Z,79.15
2022-11-20T16:38:39.440Z,79.01
2022-11-20T16:41:06.384Z,79.12
2022-11-20T16:43:32.970Z,79.04
2022-11-20T16:45:59.394Z,79.23
2022-11-20T16:48:25.812Z,79.17
2022-11-20T16:50:52.958Z,79.17
2022-11-20T16:53:19.875Z,79.26
2022-11-20T16:55:46.474Z,79.35
2022-11-20T16:58:13.123Z,79.22
2022-11-20T17:00:39.708Z,79.25
2022-11-20T17:03:06.294Z,79.31
2022-11-20T17:05:33.186Z,79.42
2022-11-20T17:07:59.630Z,79.25
2022-11-20T17:10:26.055Z,79.36
2022-11-20T17:12:52.517Z,79.03
2022-11-20T17:15:18.964Z,79.00
2022-11-20T17:17:45.394Z,79.48
2022-11-20T17:20:12.500Z,79.32
2022-11-20T17:22:38.989Z,79.23
2022-11-20T17:25:06.011Z,79.28
2022-11-20T17:27:32.463Z,79.07
2022-11-20T17:29:59.148Z,79.32
2022-11-20T17:32:25.622Z,79.07
2022-11-20T17:34:52.263Z,79.12
2022-11-20T17:37:18.702Z,79.08
2022-11-20T17:39:45.326Z,79.15
2022-11-20T17:42:27.075Z,79.17
2022-11-20T17:44:53.554Z,79.20
2022-11-20T17:47:20.209Z,79.57
2022-11-20T17:49:46.735Z,79.82
2022-11-20T17:52:13.246Z,79.38
2022-11-20T17:54:39.641Z,79.63
2022-11-20T17:57:24.794Z,79.47
2022-11-20T17:59:51.219Z,79.50
2022-11-20T18:02:17.684Z,79.54
2022-11-20T18:04:45.006Z,79.67
2022-11-20T18:07:11.508Z,79.58
2022-11-20T18:09:37.987Z,79.42
2022-11-20T18:12:04.582Z,79.63
2022-11-20T18:14:34.837Z,79.56
2022-11-20T18:17:02.494Z,79.50
2022-11-20T18:19:32.784Z,79.07
2022-11-20T18:22:04.823Z,79.22
2022-11-20T18:24:31.920Z,79.64
2022-11-20T18:26:58.534Z,79.41
2022-11-20T18:29:25.560Z,79.25
2022-11-20T18:31:52.529Z,79.37
2022-11-20T18:34:18.956Z,79.63
2022-11-20T18:36:45.434Z,79.26
2022-11-20T18:39:12.735Z,79.57
2022-11-20T18:42:17.533Z,79.30
2022-11-20T18:44:53.871Z,79.74
2022-11-20T18:47:20.354Z,79.39
2022-11-20T18:49:51.291Z,79.86
2022-11-20T18:52:22.308Z,79.61
2022-11-20T18:54:48.901Z,79.86
2022-11-20T18:57:18.963Z,79.71
2022-11-20T18:59:49.689Z,79.56
2022-11-20T19:02:16.991Z,79.61
2022-11-20T19:04:43.419Z,79.68
2022-11-20T19:07:12.064Z,79.55
2022-11-20T19:09:42.166Z,79.75
2022-11-20T19:12:09.010Z,79.87
2022-11-20T19:14:35.582Z,79.52
2022-11-20T19:17:02.184Z,80.13
2022-11-20T19:19:29.217Z,79.86
2022-11-20T19:21:55.724Z,80.02
2022-11-20T19:24:23.130Z,80.49
2022-11-20T19:26:49.705Z,80.50
2022-11-20T19:29:16.388Z,80.79
2022-11-20T19:31:42.838Z,80.58
2022-11-20T19:34:09.428Z,81.42
2022-11-20T19:36:44.366Z,81.04
2022-11-20T19:39:11.521Z,81.32
2022-11-20T19:41:38.669Z,81.16
2022-11-20T19:44:05.971Z,81.38
2022-11-20T19:46:32.755Z,81.05
2022-11-20T19:48:59.200Z,81.07
2022-11-20T19:51:26.466Z,81.51
2022-11-20T19:53:53.187Z,81.61
2022-11-20T19:56:19.732Z,81.28
2022-11-20T19:58:46.259Z,81.44
2022-11-20T20:01:17.673Z,81.70
2022-11-20T20:03:44.930Z,81.55
2022-11-20T20:06:13.612Z,81.37
2022-11-20T20:09:13.298Z,81.49
2022-11-20T20:11:39.912Z,81.70
2022-11-20T20:14:10.760Z,82.04
2022-11-20T20:16:37.344Z,81.40
2022-11-20T20:19:04.269Z,81.60
2022-11-20T20:21:30.935Z,81.66
2022-11-20T20:23:57.613Z,81.93
2022-11-20T20:26:24.272Z,81.63
2022-11-20T20:28:51.033Z,81.46
2022-11-20T20:31:18.342Z,81.31
2022-11-20T20:34:00.247Z,81.83
2022-11-20T20:36:26.821Z,81.83
2022-11-20T20:38:53.743Z,81.96
2022-11-20T20:41:20.274Z,81.70
2022-11-20T20:44:05.227Z,82.11
2022-11-20T20:46:31.887Z,81.89
2022-11-20T20:48:58.370Z,82.01
2022-11-20T20:51:25.134Z,81.76
2022-11-20T20:53:51.661Z,82.00
2022-11-20T20:56:18.564Z,81.85
2022-11-20T20:58:45.188Z,81.43
2022-11-20T21:01:12.763Z,81.71
2022-11-20T21:03:39.311Z,81.31
2022-11-20T21:06:06.455Z,80.93
2022-11-20T21:08:33.642Z,80.89
2022-11-20T21:11:10.202Z,81.18
2022-11-20T21:13:36.915Z,80.84
2022-11-20T21:16:03.446Z,80.63
2022-11-20T21:18:30.117Z,80.96
2022-11-20T21:21:15.244Z,81.02
2022-11-20T21:23:44.836Z,81.03
2022-11-20T21:26:11.429Z,81.13
2022-11-20T21:28:37.883Z,81.32
2022-11-20T21:31:04.953Z,81.42
2022-11-20T21:33:58.182Z,81.74
2022-11-20T21:36:25.411Z,82.06
2022-11-20T21:38:52.190Z,82.20
2022-11-20T21:41:18.718Z,82.00
2022-11-20T21:43:45.658Z,82.00
2022-11-20T21:46:13.017Z,82.42
2022-11-20T21:48:40.283Z,82.46
2022-11-20T21:51:07.893Z,82.18
2022-11-20T21:53:34.440Z,82.19
2022-11-20T21:56:01.332Z,81.80
2022-11-20T21:58:27.842Z,81.84
2022-11-20T22:00:54.369Z,81.70
2022-11-20T22:03:21.692Z,82.32
2022-11-20T22:05:55.801Z,81.80
2022-11-20T22:08:22.850Z,82.07
2022-11-20T22:10:59.411Z,82.19
2022-11-20T22:13:44.731Z,81.78
2022-11-20T22:16:11.275Z,81.75
2022-11-20T22:18:41.741Z,81.84
2022-11-20T22:21:08.179Z,81.78
2022-11-20T22:23:34.732Z,81.97
2022-11-20T22:26:04.605Z,81.64
2022-11-20T22:28:31.371Z,82.08
2022-11-20T22:30:59.046Z,81.78
2022-11-20T22:36:47.149Z,81.94
2022-11-20T22:39:13.574Z,81.90
2022-11-20T22:41:40.006Z,81.82
2022-11-20T22:44:06.944Z,81.58
2022-11-20T22:46:33.996Z,82.12
2022-11-20T22:49:01.232Z,81.76
2022-11-20T22:51:28.471Z,81.79
2022-11-20T22:53:54.909Z,82.02
2022-11-20T22:56:21.405Z,81.91
2022-11-20T22:58:48.381Z,81.87
2022-11-20T23:01:24.992Z,81.74
2022-11-20T23:03:54.987Z,81.92
2022-11-20T23:06:21.574Z,81.77
2022-11-20T23:08:48.264Z,81.91
2022-11-20T23:11:15.541Z,82.10
2022-11-20T23:13:42.223Z,81.61
2022-11-20T23:16:12.721Z,81.79
2022-11-20T23:18:39.290Z,81.89
2022-11-20T23:21:05.765Z,81.89
2022-11-20T23:23:32.460Z,81.93
2022-11-20T23:26:05.660Z,81.96
2022-11-20T23:28:32.149Z,82.24
2022-11-20T23:30:58.692Z,81.90
2022-11-20T23:33:25.180Z,82.16
2022-11-20T23:35:51.852Z,82.01
2022-11-20T23:38:18.377Z,81.93
2022-11-20T23:40:48.475Z,82.00
2022-11-20T23:43:15.418Z,82.11
2022-11-20T23:45:42.432Z,82.19
2022-11-20T23:48:08.897Z,81.96
2022-11-20T23:50:35.456Z,82.22
2022-11-20T23:53:01.980Z,82.12
2022-11-20T23:55:28.435Z,82.04
2022-11-20T23:57:54.893Z,81.90
